Danville Regional Airport
KDAN : now visible

Airfield :











YOU CAN JOIN US ON...

 
LOGIN :

Register | Disclaimer

   EN    FR    IT 

 









Legend :    VFR   Marginal VFR   IFR   Intensive IFR   Very Intensive IFR
Visi :
Ceiling :
>= 8 km
>= 3000ft
5 to 8 km
1000 to 3000 ft
1500m to 5 km
500 to 1000 ft
800 to 1500m
200 to 500 ft
< 800m
< 200 ft
Symbols :   Thunderstorms  Fog  Heavy snow  Heavy precipitations  Wind > 20 kt







- Airport Elevation : 571 ft
- IATA code : DAN


KDAN - Danville Regional

CURRENT METAR :
  • 201553Z AUTO 20008G18KT 10SM CLR 15/05 A2971 RMK AO2 SLP051 T01500050

EXPIRED METARs :
  • 201453Z AUTO 22013G25KT 10SM BKN042 14/05 A2971 RMK AO2 PK WND 23026/1356 SLP051 T01440050 51020
  • 201353Z AUTO 23016G22KT 10SM BKN038 14/06 A2969 RMK AO2 SLP046 T01390056

TAF KDAN
Valid from the 20 at 13:00 until the 21 at 12:00 UTC


201308Z 2013/2112 21012G22KT P6SM SCT040
FM201700 20012G22KT P6SM VCSH BKN070
FM210000 22008KT P6SM OVC025
KZDC FIR / North America



MET'MAP, your aeronautical weather chart ! - Copyright ORBIFLY December 2007 - Disclaimer

ORBIFLY MET'MAP TEAM :

Programming & Development : Alexandra Zaïnal
Concept & Development : Baudouin d'Aumeries
Co-Development & Prog : Marc-Olivier Méhu
Technical & hardware support : Manuel Goepfert

Contact : metmap@orbifly.com




SOURCES & CREDITS :

   NOAA       Earth
Advisory